^^
Station Historical Data
 
Daily Summary for December 12, 2017 Units:  English    Metric   Both
« Previous Day
Next Day »
Daily Weekly Monthly Yearly Custom
  Current: High: Low: Average:
Temperature: 32.8 °F 38.5 °F 32.8 °F 36.5 °F
Dew Point: 29.1 °F 30.8 °F 28.2 °F 29.7 °F
Humidity: 86 % 86 % 71 % 76 %
Wind Speed: 8.1 mph 11.5 mph 1.0 mph 5.7 mph
Wind Gust: 8.1 mph 11.5 mph - -
Wind:WNW - - West
Pressure: 29.71 in 29.71 in 29.62 in -
Precipitation: 0.00 in      
Historical Graphs
 
 
Tabular Data for December 12, 2017
Time Temperature Dew Point Pressure Wind Wind Speed Wind Gust Humidity Rainfall Rate (Hourly) solar Conditions
00:04 33.7 °F 28.2 °F 29.62 in ENE 1.0 mph 1.1 mph 80 % 0.00 in 0.0 W/m2
00:09 34.1 °F 28.3 °F 29.62 in ENE 1.2 mph 1.2 mph 79 % 0.00 in 0.0 W/m2
00:14 34.3 °F 28.2 °F 29.62 in NNE 3.5 mph 3.5 mph 78 % 0.00 in 0.0 W/m2
00:19 34.7 °F 28.5 °F 29.62 in ENE 4.6 mph 4.6 mph 78 % 0.00 in 0.0 W/m2
00:24 35.0 °F 28.8 °F 29.62 in East 1.2 mph 1.2 mph 78 % 0.00 in 0.0 W/m2
00:34 35.7 °F 29.2 °F 29.62 in SSW 2.3 mph 2.3 mph 77 % 0.00 in 0.0 W/m2
00:39 36.3 °F 29.8 °F 29.62 in West 3.5 mph 3.5 mph 77 % 0.00 in 0.0 W/m2
00:44 37.1 °F 30.2 °F 29.62 in West 3.5 mph 3.5 mph 76 % 0.00 in 0.0 W/m2
00:49 37.5 °F 30.3 °F 29.62 in WNW 3.5 mph 3.5 mph 75 % 0.00 in 0.0 W/m2
00:54 37.8 °F 30.3 °F 29.62 in WNW 4.0 mph 4.0 mph 74 % 0.00 in 0.0 W/m2
00:55 37.9 °F 30.4 °F 29.62 in NNW 3.5 mph 3.5 mph 74 % 0.00 in 0.0 W/m2
01:00 38.0 °F 30.1 °F 29.62 in South 3.5 mph 3.5 mph 73 % 0.00 in 0.0 W/m2
01:05 38.0 °F 30.1 °F 29.63 in WNW 6.9 mph 6.9 mph 73 % 0.00 in 0.0 W/m2 OVC
01:10 38.1 °F 30.2 °F 29.63 in NNW 2.3 mph 2.3 mph 73 % 0.00 in 0.0 W/m2 OVC
01:15 38.0 °F 30.1 °F 29.63 in West 3.5 mph 3.5 mph 73 % 0.00 in 0.0 W/m2 OVC
01:20 38.0 °F 30.1 °F 29.64 in NW 2.3 mph 2.3 mph 73 % 0.00 in 0.0 W/m2 OVC
01:26 38.0 °F 30.1 °F 29.64 in North 4.6 mph 4.6 mph 73 % 0.00 in 0.0 W/m2 OVC
01:31 38.0 °F 30.1 °F 29.64 in WNW 3.5 mph 3.5 mph 73 % 0.00 in 0.0 W/m2 OVC
01:36 38.1 °F 30.2 °F 29.64 in SW 4.6 mph 4.6 mph 73 % 0.00 in 0.0 W/m2 OVC
01:41 38.2 °F 30.3 °F 29.65 in SSE 8.1 mph 8.1 mph 73 % 0.00 in 0.0 W/m2 OVC
01:46 38.4 °F 30.5 °F 29.65 in North 4.0 mph 4.0 mph 73 % 0.00 in 0.0 W/m2 OVC
01:51 38.4 °F 30.8 °F 29.65 in WNW 3.5 mph 3.5 mph 74 % 0.00 in 0.0 W/m2 OVC
01:56 38.1 °F 30.5 °F 29.65 in West 3.5 mph 3.5 mph 74 % 0.00 in 0.0 W/m2 OVC
02:01 37.9 °F 30.4 °F 29.65 in West 3.5 mph 3.5 mph 74 % 0.00 in 0.0 W/m2 OVC
02:06 37.8 °F 30.3 °F 29.64 in WNW 4.6 mph 4.6 mph 74 % 0.00 in 0.0 W/m2 OVC
02:11 37.9 °F 30.0 °F 29.65 in WSW 6.9 mph 6.9 mph 73 % 0.00 in 0.0 W/m2 OVC
02:16 38.2 °F 30.0 °F 29.65 in NW 3.5 mph 3.5 mph 72 % 0.00 in 0.0 W/m2 OVC
02:21 38.4 °F 30.2 °F 29.66 in WSW 5.8 mph 5.8 mph 72 % 0.00 in 0.0 W/m2 OVC
02:26 38.5 °F 30.3 °F 29.66 in West 6.9 mph 6.9 mph 72 % 0.00 in 0.0 W/m2 OVC
02:32 38.5 °F 29.9 °F 29.66 in WNW 6.9 mph 6.9 mph 71 % 0.00 in 0.0 W/m2 OVC
02:37 38.5 °F 29.9 °F 29.66 in WNW 4.0 mph 4.0 mph 71 % 0.00 in 0.0 W/m2 OVC
02:42 38.4 °F 30.2 °F 29.66 in SW 5.8 mph 5.8 mph 72 % 0.00 in 0.0 W/m2 OVC
02:47 38.4 °F 30.2 °F 29.66 in West 5.8 mph 5.8 mph 72 % 0.00 in 0.0 W/m2 OVC
02:52 38.4 °F 30.2 °F 29.66 in WNW 4.6 mph 4.6 mph 72 % 0.00 in 0.0 W/m2 OVC
02:57 38.2 °F 30.0 °F 29.66 in WNW 5.8 mph 5.8 mph 72 % 0.00 in 0.0 W/m2 OVC
03:02 38.2 °F 30.3 °F 29.67 in NNW 6.0 mph 6.0 mph 73 % 0.00 in 0.0 W/m2 OVC
03:07 38.0 °F 30.1 °F 29.67 in NW 11.5 mph 11.5 mph 73 % 0.00 in 0.0 W/m2 OVC
03:12 37.8 °F 30.3 °F 29.67 in West 9.2 mph 9.2 mph 74 % 0.00 in 0.0 W/m2 OVC
03:17 37.4 °F 29.9 °F 29.67 in WNW 3.5 mph 3.5 mph 74 % 0.00 in 0.0 W/m2 OVC
03:22 37.2 °F 29.7 °F 29.67 in NW 11.5 mph 11.5 mph 74 % 0.00 in 0.0 W/m2 OVC
03:27 36.8 °F 29.6 °F 29.68 in West 9.2 mph 9.2 mph 75 % 0.00 in 0.0 W/m2 OVC
03:32 36.6 °F 29.7 °F 29.68 in NW 10.4 mph 10.4 mph 76 % 0.00 in 0.0 W/m2 OVC
03:37 36.4 °F 29.6 °F 29.68 in NW 5.8 mph 5.8 mph 76 % 0.00 in 0.0 W/m2 OVC
03:42 36.2 °F 29.7 °F 29.68 in NW 8.1 mph 8.1 mph 77 % 0.00 in 0.0 W/m2 OVC
03:47 35.9 °F 29.7 °F 29.69 in NW 9.0 mph 9.0 mph 78 % 0.00 in 0.0 W/m2 OVC
03:53 35.4 °F 29.5 °F 29.69 in WNW 11.5 mph 11.5 mph 79 % 0.00 in 0.0 W/m2 OVC
03:58 35.0 °F 29.5 °F 29.69 in WNW 10.4 mph 10.4 mph 80 % 0.00 in 0.0 W/m2 OVC
04:03 34.5 °F 29.3 °F 29.69 in WNW 11.5 mph 11.5 mph 81 % 0.00 in 0.0 W/m2 CLR
04:08 34.2 °F 29.3 °F 29.69 in NNW 11.0 mph 11.0 mph 82 % 0.00 in 0.0 W/m2 CLR
04:13 33.9 °F 29.3 °F 29.69 in NW 5.8 mph 5.8 mph 83 % 0.00 in 0.0 W/m2 CLR
04:18 33.7 °F 29.1 °F 29.68 in WNW 5.8 mph 5.8 mph 83 % 0.00 in 0.0 W/m2 CLR
04:28 33.4 °F 29.1 °F 29.69 in West 3.0 mph 3.0 mph 84 % 0.00 in 0.0 W/m2 CLR
04:33 33.2 °F 28.9 °F 29.70 in WNW 6.9 mph 6.9 mph 84 % 0.00 in 0.0 W/m2 CLR
04:38 33.1 °F 28.8 °F 29.70 in SW 11.5 mph 11.5 mph 84 % 0.00 in 0.0 W/m2 CLR
04:43 33.0 °F 29.0 °F 29.70 in NNW 6.9 mph 6.9 mph 85 % 0.00 in 0.0 W/m2 CLR
04:48 32.9 °F 28.9 °F 29.70 in WNW 6.9 mph 6.9 mph 85 % 0.00 in 0.0 W/m2 CLR
04:53 32.8 °F 28.8 °F 29.70 in WNW 3.5 mph 3.5 mph 85 % 0.00 in 0.0 W/m2 CLR
04:58 32.8 °F 29.1 °F 29.71 in WNW 8.1 mph 8.1 mph 86 % 0.00 in 0.0 W/m2 CLR
Licking County Weather
Compliments of Weather Underground - 1.75 mb